Time;durP1;ratioP1;P1;durP2;ratioP2;P2;SDS_P1;SDS_P2;PMS_P1;PMS_P2;Temp;Humidity;BMP_temperature;BMP_pressure;BME280_temperature;BME280_humidity;BME280_pressure;Samples;Min_cycle;Max_cycle;Signal;HPM_P1;HPM_P2
2021/12/26 00:02:24;;;;;;;39.78;23.10;;;;;;;4.73;65.51;95037.34;4995718;28;20262;-74
2021/12/26 00:04:50;;;;;;;38.40;23.08;;;;;;;4.77;64.71;95033.41;5030269;28;20087;-74
2021/12/26 00:07:15;;;;;;;39.65;23.52;;;;;;;4.82;64.67;95041.75;5009661;28;20025;-74
2021/12/26 00:09:41;;;;;;;41.65;25.23;;;;;;;4.89;64.05;95049.13;5010191;28;20036;-73
2021/12/26 00:12:07;;;;;;;48.97;27.05;;;;;;;4.88;64.66;95044.81;5009673;28;20017;-76
2021/12/26 00:14:33;;;;;;;46.90;26.65;;;;;;;4.88;65.03;95039.50;5009414;28;20435;-76
2021/12/26 00:16:58;;;;;;;45.67;24.90;;;;;;;4.94;64.55;95028.25;5027644;28;20028;-75
2021/12/26 00:19:23;;;;;;;45.60;25.08;;;;;;;4.94;63.68;95038.88;5009564;28;20030;-75
2021/12/26 00:21:49;;;;;;;43.72;24.65;;;;;;;4.97;64.08;95038.56;5027685;28;20053;-74
2021/12/26 00:24:14;;;;;;;42.83;23.83;;;;;;;4.92;64.07;95046.16;5027216;28;20017;-75
2021/12/26 00:26:40;;;;;;;45.53;26.92;;;;;;;4.85;63.70;95050.41;5009886;28;20029;-75
2021/12/26 00:29:05;;;;;;;42.50;25.23;;;;;;;4.81;63.81;95045.41;5026853;28;20476;-75
2021/12/26 00:31:31;;;;;;;50.08;26.63;;;;;;;4.72;63.92;95048.13;5027452;28;20017;-75
2021/12/26 00:33:56;;;;;;;45.20;26.85;;;;;;;4.64;63.94;95043.56;5027528;28;20029;-75
2021/12/26 00:36:22;;;;;;;47.92;26.95;;;;;;;4.54;63.51;95046.28;5009743;28;20492;-75
2021/12/26 00:38:47;;;;;;;42.85;27.20;;;;;;;4.43;63.00;95056.09;5027019;28;20490;-75
2021/12/26 00:41:13;;;;;;;45.05;25.55;;;;;;;4.35;63.58;95058.69;5026615;28;20066;-75
2021/12/26 00:43:38;;;;;;;49.67;28.17;;;;;;;4.36;64.31;95054.19;5027388;28;20517;-75
2021/12/26 00:46:04;;;;;;;51.88;29.77;;;;;;;4.32;64.02;95057.16;5008452;28;20114;-75
2021/12/26 00:48:30;;;;;;;52.40;28.52;;;;;;;4.20;63.78;95066.28;5009731;28;20034;-74
2021/12/26 00:50:56;;;;;;;50.53;28.88;;;;;;;4.20;63.92;95059.19;5008721;28;20060;-75
2021/12/26 00:53:22;;;;;;;54.45;31.15;;;;;;;4.02;64.71;95053.78;5009555;28;20025;-74
2021/12/26 00:55:48;;;;;;;47.95;27.88;;;;;;;3.89;65.79;95056.78;5008768;28;20045;-75
2021/12/26 00:58:13;;;;;;;51.25;29.25;;;;;;;3.88;65.84;95063.06;5026438;28;20121;-75
2021/12/26 01:00:41;;;;;;;54.20;30.17;;;;;;;3.71;65.82;95049.56;5026691;28;20029;-74
2021/12/26 01:03:06;;;;;;;57.00;31.00;;;;;;;3.63;66.42;95048.63;5025980;28;20036;-75
2021/12/26 01:05:33;;;;;;;55.92;30.70;;;;;;;3.60;66.50;95049.72;5009589;28;20022;-75
2021/12/26 01:08:00;;;;;;;55.30;30.92;;;;;;;3.41;66.72;95040.00;5025785;28;20167;-75
2021/12/26 01:10:44;;;;;;;41.85;24.75;;;;;;;3.48;68.06;95041.13;5009042;28;20048;-76
2021/12/26 01:13:17;;;;;;;50.30;27.52;;;;;;;3.51;67.03;95040.84;5010088;28;20044;-74
2021/12/26 01:15:44;;;;;;;50.55;31.00;;;;;;;3.57;66.63;95032.31;5008982;28;20030;-75
2021/12/26 01:18:09;;;;;;;54.10;31.08;;;;;;;3.58;66.69;95031.31;5009181;28;20029;-75
2021/12/26 01:23:07;;;;;;;52.00;29.85;;;;;;;3.59;66.94;95034.81;5026645;28;20108;-75
2021/12/26 01:25:32;;;;;;;51.83;30.77;;;;;;;3.62;66.86;95031.03;5026093;28;20104;-74
2021/12/26 01:27:58;;;;;;;48.65;28.95;;;;;;;3.68;66.85;95033.09;5026386;28;20040;-74
2021/12/26 01:30:23;;;;;;;49.58;29.42;;;;;;;3.67;67.01;95026.13;5026323;28;20033;-74
2021/12/26 01:32:48;;;;;;;53.33;29.52;;;;;;;3.66;67.05;95019.16;5025869;28;20036;-74
2021/12/26 01:35:14;;;;;;;57.10;31.50;;;;;;;3.67;66.92;95013.72;5026611;28;20025;-76
2021/12/26 01:37:40;;;;;;;57.17;31.25;;;;;;;3.67;67.33;95018.16;5025515;28;20033;-74
2021/12/26 01:40:06;;;;;;;54.30;31.13;;;;;;;3.75;66.67;95018.28;5026473;28;20492;-75
2021/12/26 01:42:33;;;;;;;59.38;34.13;;;;;;;3.70;66.96;95010.78;5025437;28;20057;-74
2021/12/26 01:44:58;;;;;;;60.97;32.58;;;;;;;3.69;67.25;95013.56;5008902;28;20033;-75
2021/12/26 01:47:24;;;;;;;60.55;32.03;;;;;;;3.75;67.29;95007.69;5025879;28;20037;-76
2021/12/26 01:49:50;;;;;;;61.72;32.58;;;;;;;3.66;67.65;95013.84;5008457;28;20032;-74
2021/12/26 01:52:15;;;;;;;59.55;32.53;;;;;;;3.72;67.30;95010.63;5025894;28;20087;-74
2021/12/26 01:54:49;;;;;;;55.05;31.25;;;;;;;3.73;67.70;95006.97;5025593;28;20046;-74
2021/12/26 01:57:16;;;;;;;65.10;32.83;;;;;;;3.58;67.85;95014.56;5026472;28;20038;-74
2021/12/26 01:59:42;;;;;;;60.03;32.88;;;;;;;3.55;68.24;95012.19;5008242;28;20029;-75
2021/12/26 02:02:08;;;;;;;55.42;32.15;;;;;;;3.57;67.97;95011.09;5008450;28;20049;-74
2021/12/26 02:04:37;;;;;;;51.92;30.77;;;;;;;3.49;68.20;95010.97;5007963;28;20485;-74
2021/12/26 02:07:03;;;;;;;54.85;31.38;;;;;;;3.55;67.52;95006.88;4991975;28;20057;-75
2021/12/26 02:09:29;;;;;;;61.40;32.97;;;;;;;3.55;67.98;94997.13;5025862;28;20129;-75
2021/12/26 02:11:54;;;;;;;63.40;32.65;;;;;;;3.55;68.21;94993.63;5025547;28;20021;-75
2021/12/26 02:14:20;;;;;;;58.90;33.63;;;;;;;3.49;68.26;94986.25;5026251;28;20037;-75
2021/12/26 02:16:45;;;;;;;56.05;30.88;;;;;;;3.54;68.39;94989.31;5025253;28;20049;-75
2021/12/26 02:19:11;;;;;;;50.10;30.75;;;;;;;3.55;68.63;94994.47;5026138;28;20408;-75
2021/12/26 02:29:42;;;;;;;50.08;27.75;;;;;;;3.66;68.26;95006.72;5028909;28;20040;-75
2021/12/26 02:32:08;;;;;;;50.28;28.02;;;;;;;3.48;68.63;95000.50;5012204;28;20466;-76
2021/12/26 02:34:33;;;;;;;55.00;30.50;;;;;;;3.52;68.96;95002.72;5010957;28;20033;-74
2021/12/26 02:36:59;;;;;;;54.85;30.38;;;;;;;3.60;68.10;94999.34;5030009;28;20025;-74
2021/12/26 02:39:24;;;;;;;50.70;29.70;;;;;;;3.58;68.30;95001.28;5029015;28;20443;-74
2021/12/26 02:41:49;;;;;;;59.17;29.77;;;;;;;3.68;67.63;94990.66;5029152;28;20101;-75
2021/12/26 02:44:15;;;;;;;49.72;30.13;;;;;;;3.69;68.38;94993.16;5029353;28;20427;-74
2021/12/26 02:46:40;;;;;;;52.17;29.23;;;;;;;3.51;68.78;94998.41;5028533;28;20507;-73
2021/12/26 02:49:06;;;;;;;53.92;30.10;;;;;;;3.59;68.75;95001.16;5029609;28;20496;-74
2021/12/26 02:51:32;;;;;;;61.05;30.00;;;;;;;3.67;68.72;95007.56;5028610;28;20054;-76
2021/12/26 02:53:57;;;;;;;48.40;28.48;;;;;;;3.54;69.04;94997.28;5029624;28;20072;-75
2021/12/26 02:56:24;;;;;;;51.38;29.08;;;;;;;3.56;69.42;94992.66;5028860;28;20040;-76
2021/12/26 02:58:49;;;;;;;50.95;28.42;;;;;;;3.55;69.03;95002.44;5011540;28;20033;-76
2021/12/26 03:01:18;;;;;;;51.97;28.65;;;;;;;3.61;68.90;94993.03;5028832;28;20030;-75
2021/12/26 03:03:44;;;;;;;46.53;26.42;;;;;;;3.62;68.64;95002.69;5010691;28;20470;-76
2021/12/26 03:06:19;;;;;;;42.47;25.98;;;;;;;3.67;69.18;95004.91;5029241;28;20025;-74
2021/12/26 03:08:47;;;;;;;46.08;26.42;;;;;;;3.71;69.01;94996.50;5028290;28;20026;-74
2021/12/26 03:11:12;;;;;;;46.30;26.38;;;;;;;3.71;68.68;94995.66;5029275;28;20127;-74
2021/12/26 03:13:37;;;;;;;46.20;27.13;;;;;;;3.81;68.13;94996.47;5010318;28;20026;-75
2021/12/26 03:16:03;;;;;;;45.13;25.75;;;;;;;3.77;69.11;95005.69;5028878;28;20021;-76
2021/12/26 03:18:28;;;;;;;51.53;27.98;;;;;;;3.83;68.58;94993.69;5028259;28;20033;-76
2021/12/26 03:20:54;;;;;;;52.72;29.27;;;;;;;3.88;68.02;94998.56;5028366;28;20040;-74
2021/12/26 03:23:21;;;;;;;59.33;31.92;;;;;;;3.90;68.49;94994.75;5028644;28;20029;-75
2021/12/26 03:25:47;;;;;;;49.20;28.38;;;;;;;3.95;68.11;94992.50;5009980;28;20472;-75
2021/12/26 03:28:12;;;;;;;44.80;26.85;;;;;;;4.01;67.73;95001.72;5029120;28;20022;-75
2021/12/26 03:30:38;;;;;;;48.63;28.02;;;;;;;4.08;67.33;94996.63;5027432;28;20412;-75
2021/12/26 03:33:05;;;;;;;47.17;27.20;;;;;;;4.15;67.30;94980.94;5028442;28;20476;-74
2021/12/26 03:35:31;;;;;;;42.35;23.75;;;;;;;4.13;67.59;94989.06;5028186;28;20401;-74
2021/12/26 03:37:56;;;;;;;48.00;27.83;;;;;;;4.13;67.79;94988.22;4994057;28;20084;-74
2021/12/26 03:40:22;;;;;;;45.22;25.38;;;;;;;4.08;67.91;94983.34;5010360;28;20028;-74
2021/12/26 03:42:51;;;;;;;41.85;24.80;;;;;;;4.19;67.32;94998.28;5010013;28;20519;-74
2021/12/26 03:45:16;;;;;;;40.58;24.45;;;;;;;4.19;66.96;94990.31;5028752;28;20061;-75
2021/12/26 03:47:42;;;;;;;47.17;24.67;;;;;;;4.24;67.73;94998.63;5027075;28;20033;-76
2021/12/26 03:50:07;;;;;;;41.45;24.20;;;;;;;4.32;66.32;95004.03;5028540;28;20022;-76
2021/12/26 03:52:33;;;;;;;39.38;23.73;;;;;;;4.26;66.28;95009.09;5027349;28;20025;-76
2021/12/26 03:54:59;;;;;;;47.30;24.50;;;;;;;4.32;66.31;95013.84;5028154;28;20046;-74
2021/12/26 03:57:24;;;;;;;45.58;24.05;;;;;;;4.22;66.53;95019.22;5027871;28;20034;-74
2021/12/26 03:59:49;;;;;;;49.08;25.08;;;;;;;4.22;65.85;95016.56;5026895;28;20151;-74
2021/12/26 04:02:15;;;;;;;46.92;25.15;;;;;;;4.20;64.63;95015.88;5028158;28;20428;-75
2021/12/26 04:04:42;;;;;;;48.72;26.85;;;;;;;3.97;65.25;95016.25;5027030;28;20396;-74
2021/12/26 04:07:08;;;;;;;43.00;26.33;;;;;;;3.87;65.21;95026.06;5010729;28;20049;-74
2021/12/26 04:09:33;;;;;;;45.20;25.30;;;;;;;3.78;65.39;95030.41;5009029;28;20563;-74
2021/12/26 04:11:59;;;;;;;39.03;23.30;;;;;;;3.55;66.20;95033.41;5010409;28;20018;-77
2021/12/26 04:14:24;;;;;;;33.67;21.27;;;;;;;3.58;65.88;95026.00;5027538;28;20080;-74
2021/12/26 04:16:50;;;;;;;38.10;20.25;;;;;;;3.47;65.78;95026.16;5009654;28;20029;-76
2021/12/26 04:19:15;;;;;;;36.25;20.50;;;;;;;3.31;66.27;95029.41;5027627;28;20028;-75
2021/12/26 04:21:40;;;;;;;37.40;22.00;;;;;;;3.14;67.34;95025.66;5027090;28;20075;-75
2021/12/26 04:24:06;;;;;;;35.35;20.38;;;;;;;3.17;67.04;95031.53;5010206;28;20025;-76
2021/12/26 04:26:32;;;;;;;35.35;21.02;;;;;;;2.99;67.69;95025.25;5026787;28;20066;-75
2021/12/26 04:28:57;;;;;;;39.40;21.33;;;;;;;3.05;67.57;95022.88;5028178;28;20049;-75
2021/12/26 04:31:22;;;;;;;38.15;21.73;;;;;;;3.00;67.88;95037.53;5009168;28;20029;-76
2021/12/26 04:33:48;;;;;;;40.80;22.30;;;;;;;2.94;67.96;95023.03;5027221;28;20059;-75
2021/12/26 04:36:14;;;;;;;35.90;20.10;;;;;;;2.91;68.45;95024.16;5027028;28;20026;-76
2021/12/26 04:38:40;;;;;;;35.08;20.83;;;;;;;3.00;68.05;95030.41;5009049;28;20022;-74
2021/12/26 04:41:06;;;;;;;35.83;20.25;;;;;;;2.94;68.50;95028.31;5027576;28;20087;-75
2021/12/26 04:43:34;;;;;;;38.25;20.15;;;;;;;2.87;68.68;95030.69;5026502;28;20424;-74
2021/12/26 04:46:02;;;;;;;36.67;20.20;;;;;;;2.88;68.96;95034.19;5026821;28;20037;-75
2021/12/26 04:48:28;;;;;;;43.97;21.85;;;;;;;2.94;68.60;95020.38;5026208;28;20090;-76
2021/12/26 04:50:53;;;;;;;41.00;22.25;;;;;;;2.95;68.60;95030.84;5009430;28;20021;-74
2021/12/26 04:53:19;;;;;;;33.95;21.88;;;;;;;3.01;68.71;95034.75;5026854;28;20021;-74
2021/12/26 04:55:44;;;;;;;34.67;21.35;;;;;;;3.09;68.24;95042.81;5026074;28;20037;-74
2021/12/26 04:58:09;;;;;;;38.00;22.23;;;;;;;3.17;68.01;95030.69;5027027;28;20064;-75
2021/12/26 05:00:35;;;;;;;38.92;21.73;;;;;;;3.21;68.16;95042.66;5026308;28;20052;-74
2021/12/26 05:03:03;;;;;;;41.92;22.08;;;;;;;3.22;67.80;95044.38;5026872;28;20026;-74
2021/12/26 05:05:29;;;;;;;40.25;23.13;;;;;;;3.25;67.99;95041.44;4992220;28;20040;-76
2021/12/26 05:07:54;;;;;;;43.10;24.63;;;;;;;3.26;68.56;95039.59;5027091;28;20021;-75
2021/12/26 05:10:20;;;;;;;39.47;22.65;;;;;;;3.27;68.72;95044.78;5026044;28;20378;-75
2021/12/26 05:12:46;;;;;;;42.88;24.40;;;;;;;3.31;68.12;95046.16;5008902;28;20404;-76
2021/12/26 05:15:12;;;;;;;46.70;26.60;;;;;;;3.33;68.42;95044.22;4992259;28;20454;-75
2021/12/26 05:17:38;;;;;;;52.08;28.98;;;;;;;3.39;68.40;95041.94;4992313;28;20504;-75
2021/12/26 05:20:04;;;;;;;60.60;32.55;;;;;;;3.42;68.58;95044.31;5026387;28;20021;-74
2021/12/26 05:22:29;;;;;;;49.50;26.95;;;;;;;3.41;68.65;95048.81;5008119;28;20029;-74
2021/12/26 05:24:55;;;;;;;50.58;28.67;;;;;;;3.52;68.43;95054.91;5009068;28;20021;-75
2021/12/26 05:27:20;;;;;;;54.53;30.02;;;;;;;3.57;68.36;95061.47;5025574;28;20029;-75
2021/12/26 05:29:45;;;;;;;55.50;31.52;;;;;;;3.58;68.54;95052.53;5026695;28;20085;-74
2021/12/26 05:32:11;;;;;;;56.35;30.00;;;;;;;3.68;68.59;95049.00;5008060;28;20088;-76
2021/12/26 05:34:36;;;;;;;52.40;29.13;;;;;;;3.63;69.85;95054.75;5026649;28;20087;-76
2021/12/26 05:37:02;;;;;;;47.22;28.33;;;;;;;3.64;69.07;95053.78;5008231;28;20030;-76
2021/12/26 05:39:27;;;;;;;52.78;29.75;;;;;;;3.68;69.91;95044.56;5025883;28;20021;-76
2021/12/26 05:41:53;;;;;;;57.55;30.58;;;;;;;3.55;70.14;95055.47;5026454;28;20025;-76
2021/12/26 05:44:18;;;;;;;59.25;32.47;;;;;;;3.57;70.91;95042.91;5025677;28;20421;-74
2021/12/26 05:46:45;;;;;;;55.35;29.38;;;;;;;3.57;70.66;95042.06;5008874;28;20468;-74
2021/12/26 05:49:11;;;;;;;50.78;28.52;;;;;;;3.45;71.15;95034.25;5025257;28;20030;-74
2021/12/26 05:51:36;;;;;;;55.50;30.48;;;;;;;3.45;71.76;95036.09;5026240;28;20044;-74
2021/12/26 05:54:01;;;;;;;52.97;30.48;;;;;;;3.46;71.88;95035.97;5025617;28;20045;-74
2021/12/26 05:56:27;;;;;;;50.13;28.40;;;;;;;3.47;72.06;95028.81;5025735;28;20041;-74
2021/12/26 05:58:52;;;;;;;50.60;29.10;;;;;;;3.45;72.40;95012.25;5030798;28;20033;-76
2021/12/26 06:01:18;;;;;;;50.10;28.08;;;;;;;3.41;72.97;95016.13;5029377;28;20412;-74
2021/12/26 06:03:43;;;;;;;45.88;26.17;;;;;;;3.55;71.46;95013.03;5031055;28;20523;-76
2021/12/26 06:06:09;;;;;;;38.67;21.85;;;;;;;3.62;70.44;95002.69;5029646;28;20026;-74
2021/12/26 06:08:34;;;;;;;40.03;22.23;;;;;;;3.56;71.12;95001.44;5030877;28;20029;-74
2021/12/26 06:11:01;;;;;;;36.53;22.40;;;;;;;3.51;70.92;94990.44;5012032;28;20029;-75
2021/12/26 06:13:26;;;;;;;36.75;22.30;;;;;;;3.45;72.21;94985.72;5012334;28;20060;-75
2021/12/26 06:15:54;;;;;;;37.47;22.92;;;;;;;3.37;72.29;94985.59;5030093;28;20487;-74
2021/12/26 06:18:19;;;;;;;39.67;24.15;;;;;;;3.21;73.93;94987.84;5029285;28;20030;-74
2021/12/26 06:20:45;;;;;;;42.45;22.77;;;;;;;3.29;72.71;94975.72;5030785;28;20062;-75
2021/12/26 06:23:12;;;;;;;35.35;21.20;;;;;;;3.32;73.00;94980.72;5012518;28;20036;-76
2021/12/26 06:25:38;;;;;;;41.03;22.33;;;;;;;3.35;73.03;94985.75;5032324;28;20363;-76
2021/12/26 06:28:04;;;;;;;37.63;22.67;;;;;;;3.39;72.88;94992.41;5012982;28;20033;-74
2021/12/26 06:30:29;;;;;;;36.78;22.55;;;;;;;3.37;73.19;94982.94;5012222;28;20461;-75
2021/12/26 06:32:55;;;;;;;40.38;22.42;;;;;;;3.43;73.19;94993.78;5011631;28;20088;-75
2021/12/26 06:35:20;;;;;;;39.33;23.05;;;;;;;3.43;73.23;94987.69;5029135;28;20040;-75
2021/12/26 06:37:45;;;;;;;40.13;22.42;;;;;;;3.42;73.27;94996.59;5011958;28;20384;-76
2021/12/26 06:40:11;;;;;;;44.88;23.88;;;;;;;3.43;73.89;95015.00;5028689;28;20026;-75
2021/12/26 06:42:42;;;;;;;40.30;24.40;;;;;;;3.42;73.94;95020.44;5012281;28;20444;-75
2021/12/26 06:45:09;;;;;;;35.90;22.35;;;;;;;3.41;74.17;95019.63;5011712;28;20484;-75
2021/12/26 06:47:36;;;;;;;44.15;25.38;;;;;;;3.39;74.48;95028.69;5012035;28;20044;-75
2021/12/26 06:50:01;;;;;;;40.95;25.92;;;;;;;3.13;75.65;95030.13;5028835;28;20017;-73
2021/12/26 06:52:27;;;;;;;53.08;31.30;;;;;;;3.30;74.68;95025.94;5011059;28;20037;-76
2021/12/26 06:54:52;;;;;;;47.78;29.67;;;;;;;3.32;75.90;95031.91;5029419;28;20030;-75
2021/12/26 06:57:17;;;;;;;46.88;29.75;;;;;;;3.38;75.24;95030.53;5028325;28;20433;-74
2021/12/26 06:59:43;;;;;;;52.67;30.60;;;;;;;3.48;75.09;95033.16;5011615;28;20542;-75
2021/12/26 07:02:08;;;;;;;46.70;28.73;;;;;;;3.54;75.19;95037.91;5028478;28;20489;-74
2021/12/26 07:04:34;;;;;;;48.60;29.50;;;;;;;3.58;74.62;95033.97;5029283;28;20025;-75
2021/12/26 07:07:00;;;;;;;46.88;28.42;;;;;;;3.63;74.82;95046.78;5028154;28;20033;-75
2021/12/26 07:09:25;;;;;;;51.58;30.85;;;;;;;3.63;73.83;95059.22;5028295;28;20062;-76
2021/12/26 07:11:51;;;;;;;52.50;31.15;;;;;;;3.66;74.03;95056.28;5028516;28;20033;-76
2021/12/26 07:14:16;;;;;;;49.78;29.98;;;;;;;3.65;74.71;95054.59;5028713;28;20033;-74
2021/12/26 07:16:41;;;;;;;52.38;29.92;;;;;;;3.72;73.80;95063.69;5010762;28;20037;-75
2021/12/26 07:19:07;;;;;;;51.28;31.50;;;;;;;3.77;73.76;95058.75;5028069;28;20029;-75
2021/12/26 07:21:32;;;;;;;59.80;33.75;;;;;;;3.73;74.78;95051.22;5028898;28;20052;-75
2021/12/26 07:23:58;;;;;;;60.97;38.40;;;;;;;3.74;74.65;95047.63;5028007;28;20067;-74
2021/12/26 07:26:24;;;;;;;59.70;34.53;;;;;;;3.73;75.13;95038.81;5029473;28;20021;-77
2021/12/26 07:28:50;;;;;;;51.13;31.92;;;;;;;3.82;73.91;95047.72;5010421;28;20025;-74
2021/12/26 07:31:15;;;;;;;54.40;30.63;;;;;;;3.77;74.92;95040.19;5028690;28;20060;-76
2021/12/26 07:33:41;;;;;;;49.40;29.45;;;;;;;3.81;74.75;95046.03;5028281;28;20405;-75
2021/12/26 07:36:07;;;;;;;51.45;30.65;;;;;;;3.87;74.20;95048.13;5028061;28;20021;-75
2021/12/26 07:38:32;;;;;;;59.17;34.35;;;;;;;3.97;73.76;95037.47;5028338;28;20101;-75
2021/12/26 07:40:58;;;;;;;52.13;31.20;;;;;;;3.97;73.81;95041.97;5027689;28;20108;-73
2021/12/26 07:43:23;;;;;;;52.85;30.98;;;;;;;4.01;73.96;95044.19;5011040;28;20021;-76
2021/12/26 07:45:48;;;;;;;64.75;38.13;;;;;;;4.07;73.39;95040.94;5009567;28;20017;-76
2021/12/26 07:48:14;;;;;;;67.93;39.08;;;;;;;4.07;74.80;95038.28;5011162;28;20021;-74
2021/12/26 07:50:39;;;;;;;62.72;40.45;;;;;;;4.10;73.95;95038.94;5027987;28;20369;-75
2021/12/26 07:53:09;;;;;;;58.80;34.63;;;;;;;4.14;74.18;95038.53;5029126;28;20412;-77
2021/12/26 07:55:35;;;;;;;58.10;34.50;;;;;;;4.20;73.68;95037.09;5027851;28;20021;-76
2021/12/26 07:58:01;;;;;;;63.30;32.10;;;;;;;4.07;74.69;95027.66;5027415;28;20044;-73
2021/12/26 08:00:26;;;;;;;51.75;31.67;;;;;;;4.15;75.11;95042.84;5028479;28;20443;-75
2021/12/26 08:02:51;;;;;;;54.13;31.77;;;;;;;4.22;74.81;95037.78;5009388;28;20395;-75
2021/12/26 08:05:17;;;;;;;53.30;31.67;;;;;;;4.26;74.79;95031.19;5010690;28;20017;-74
2021/12/26 08:07:43;;;;;;;47.50;30.27;;;;;;;4.41;74.34;95030.69;5009219;28;20037;-76
2021/12/26 08:10:08;;;;;;;55.63;31.73;;;;;;;4.45;73.90;95009.00;5027608;28;20033;-76
2021/12/26 08:12:34;;;;;;;54.38;30.35;;;;;;;4.52;72.61;95022.53;5027767;28;20040;-74
2021/12/26 08:15:02;;;;;;;47.97;29.77;;;;;;;4.44;73.36;95022.44;5027489;28;20093;-74
2021/12/26 08:17:30;;;;;;;51.60;28.45;;;;;;;4.23;72.97;95017.38;5027890;28;20476;-76
2021/12/26 08:19:59;;;;;;;47.65;28.02;;;;;;;4.12;73.77;95016.59;5008222;28;20040;-76
2021/12/26 08:22:24;;;;;;;50.35;27.05;;;;;;;4.06;74.60;95025.97;5010332;28;20029;-76
2021/12/26 08:24:50;;;;;;;46.42;25.83;;;;;;;4.10;73.43;95030.97;5026765;28;20025;-75
2021/12/26 08:27:15;;;;;;;47.13;27.52;;;;;;;4.02;75.00;95023.75;5009871;28;20041;-76
2021/12/26 08:29:41;;;;;;;47.78;26.92;;;;;;;3.99;74.89;95035.50;5027023;28;20033;-75
2021/12/26 08:32:10;;;;;;;50.28;30.42;;;;;;;4.06;74.51;95036.59;5009442;28;20518;-75
2021/12/26 08:34:36;;;;;;;47.65;28.38;;;;;;;4.14;73.35;95041.19;5027587;28;20049;-76
2021/12/26 08:37:03;;;;;;;49.08;27.23;;;;;;;4.07;74.03;95037.44;5026464;28;20048;-77
2021/12/26 08:39:30;;;;;;;43.65;26.52;;;;;;;4.08;74.50;95045.25;5010235;28;20026;-75
2021/12/26 08:41:55;;;;;;;44.70;28.15;;;;;;;4.06;74.30;95043.72;5026290;28;20061;-76
2021/12/26 08:44:21;;;;;;;47.20;27.85;;;;;;;4.08;75.03;95029.31;5027941;28;20025;-77
2021/12/26 08:46:47;;;;;;;44.97;28.38;;;;;;;4.15;73.83;95024.28;5026385;28;20033;-76
2021/12/26 08:49:13;;;;;;;50.45;29.15;;;;;;;4.18;72.95;95039.06;5027146;28;20022;-76
2021/12/26 08:51:39;;;;;;;47.88;29.90;;;;;;;4.19;73.11;95036.25;5026956;28;20049;-76
2021/12/26 08:54:04;;;;;;;45.80;29.10;;;;;;;4.22;73.98;95034.28;5008617;28;20156;-76
2021/12/26 08:56:30;;;;;;;46.97;28.70;;;;;;;4.24;74.20;95035.81;5027125;28;20417;-75
2021/12/26 08:58:55;;;;;;;48.10;29.17;;;;;;;4.30;74.43;95042.38;5008207;28;20033;-77
2021/12/26 09:01:21;;;;;;;48.58;29.42;;;;;;;4.31;74.10;95034.25;5009740;28;20022;-75
2021/12/26 09:03:46;;;;;;;48.22;29.13;;;;;;;4.36;74.49;95023.19;5026011;28;20025;-76
2021/12/26 09:06:12;;;;;;;49.63;29.75;;;;;;;4.43;73.86;95026.91;5026900;28;20029;-76
2021/12/26 09:08:37;;;;;;;52.28;32.05;;;;;;;4.46;74.96;95017.81;5008657;28;20033;-76
2021/12/26 09:11:03;;;;;;;58.08;33.38;;;;;;;4.49;74.00;95019.31;5025971;28;20025;-77
2021/12/26 09:13:28;;;;;;;60.83;35.50;;;;;;;4.43;74.55;95010.16;5009041;28;20040;-76
2021/12/26 09:15:54;;;;;;;65.05;33.88;;;;;;;4.51;74.25;95007.59;5025799;28;20026;-76
2021/12/26 09:18:19;;;;;;;55.83;33.20;;;;;;;4.48;74.55;95018.50;5009410;28;20021;-75
2021/12/26 09:20:45;;;;;;;60.00;32.58;;;;;;;4.55;74.96;95013.41;5025795;28;20026;-76
2021/12/26 09:23:10;;;;;;;56.50;33.10;;;;;;;4.54;75.03;95007.28;5008937;28;20022;-74
2021/12/26 09:25:36;;;;;;;52.90;32.25;;;;;;;4.63;74.65;94999.38;5026402;28;20017;-75
2021/12/26 09:28:01;;;;;;;58.85;34.83;;;;;;;4.70;74.48;94997.81;5026118;28;20021;-77
2021/12/26 09:30:27;;;;;;;60.78;35.83;;;;;;;4.84;74.80;95006.25;5026053;28;20029;-75
2021/12/26 09:32:52;;;;;;;62.53;36.08;;;;;;;4.85;74.01;95002.59;5008266;28;20467;-76
2021/12/26 09:35:18;;;;;;;63.13;35.92;;;;;;;4.96;73.67;95010.34;5026300;28;20021;-75
2021/12/26 09:37:46;;;;;;;60.20;34.25;;;;;;;5.01;72.46;95016.03;5007881;28;20400;-76
2021/12/26 09:40:13;;;;;;;60.25;34.28;;;;;;;4.97;73.57;95009.34;5009095;28;20028;-74
2021/12/26 09:42:38;;;;;;;60.63;35.38;;;;;;;5.02;73.30;95009.72;5007618;28;20057;-76
2021/12/26 09:45:05;;;;;;;49.83;30.15;;;;;;;5.06;73.56;95011.06;5008602;28;20034;-76
2021/12/26 09:47:30;;;;;;;49.17;28.75;;;;;;;5.09;73.97;95006.44;5008247;28;20029;-75
2021/12/26 09:49:56;;;;;;;44.10;28.00;;;;;;;5.11;74.18;94996.50;5026336;28;20136;-75
2021/12/26 09:52:21;;;;;;;50.72;30.00;;;;;;;5.14;74.30;94994.34;5008306;28;20496;-76
2021/12/26 09:54:47;;;;;;;50.15;30.85;;;;;;;5.21;74.61;94991.91;5007803;28;20026;-74
2021/12/26 09:57:13;;;;;;;52.17;30.92;;;;;;;5.31;74.07;95013.94;5008458;28;20038;-75
2021/12/26 09:59:38;;;;;;;53.72;33.10;;;;;;;5.46;73.60;95021.38;5025264;28;20399;-76
2021/12/26 10:02:11;;;;;;;64.10;33.97;;;;;;;5.60;72.51;95009.31;5008567;28;20026;-75
2021/12/26 10:04:37;;;;;;;62.15;35.88;;;;;;;5.69;72.30;95004.88;5025503;28;20032;-76
2021/12/26 10:07:11;;;;;;;74.07;38.45;;;;;;;5.82;71.83;95004.44;5008202;28;20124;-76
2021/12/26 10:09:41;;;;;;;71.57;41.42;;;;;;;5.91;71.58;95008.84;5008364;28;20041;-75
2021/12/26 10:12:07;;;;;;;74.95;43.75;;;;;;;6.00;71.79;95008.84;5025236;28;20017;-76
2021/12/26 10:14:34;;;;;;;74.32;45.15;;;;;;;6.13;72.17;95014.63;5026600;28;20017;-75
2021/12/26 10:17:01;;;;;;;73.03;43.80;;;;;;;6.12;72.03;95014.78;5025497;28;20033;-74
2021/12/26 10:19:34;;;;;;;72.80;44.22;;;;;;;6.22;71.75;95018.16;5009463;28;20574;-76
2021/12/26 10:22:01;;;;;;;72.30;43.35;;;;;;;6.34;72.16;95025.84;5025444;28;20481;-76
2021/12/26 10:24:40;;;;;;;72.43;44.42;;;;;;;6.48;72.15;95029.75;5007958;28;20540;-75
2021/12/26 10:27:07;;;;;;;71.65;40.97;;;;;;;6.59;71.31;95020.59;5025997;28;20124;-77
2021/12/26 10:29:34;;;;;;;59.00;38.88;;;;;;;6.68;70.15;95019.63;5007352;28;20034;-75
2021/12/26 10:32:05;;;;;;;64.90;38.75;;;;;;;6.77;69.80;95012.50;5026341;28;20558;-75
2021/12/26 10:34:33;;;;;;;64.35;37.40;;;;;;;6.95;69.36;95004.34;5024976;28;20033;-75
2021/12/26 10:37:01;;;;;;;60.58;36.35;;;;;;;6.97;69.41;94997.03;5026194;28;20450;-75
2021/12/26 10:39:35;;;;;;;44.85;27.85;;;;;;;7.09;68.49;94997.53;5025113;28;20037;-76
2021/12/26 10:42:02;;;;;;;42.38;27.45;;;;;;;7.24;68.58;94996.88;5025537;28;20057;-76
2021/12/26 10:44:32;;;;;;;41.35;26.17;;;;;;;7.34;67.87;94996.69;5028858;28;20022;-76
2021/12/26 10:47:05;;;;;;;41.03;26.08;;;;;;;7.49;67.29;94995.03;5028694;28;20516;-76
2021/12/26 10:49:54;;;;;;;40.03;26.30;;;;;;;7.45;67.50;94991.00;5029493;28;20452;-75
2021/12/26 10:52:25;;;;;;;31.38;21.08;;;;;;;7.56;67.04;94989.81;5011073;28;20111;-75
2021/12/26 10:54:54;;;;;;;36.08;23.30;;;;;;;7.62;67.48;94996.34;5011742;28;20053;-74
2021/12/26 10:57:36;;;;;;;39.38;23.77;;;;;;;7.58;67.96;94997.69;5011054;28;20345;-76
2021/12/26 11:00:15;;;;;;;36.90;20.65;;;;;;;7.70;66.48;95001.66;5028384;28;20025;-77
2021/12/26 11:02:43;;;;;;;33.80;21.40;;;;;;;7.66;67.13;95006.50;5029327;28;20029;-74
2021/12/26 11:05:10;;;;;;;33.95;21.55;;;;;;;7.66;67.83;95003.00;5028592;28;20057;-75
2021/12/26 11:07:40;;;;;;;31.10;20.25;;;;;;;7.69;68.04;95010.66;5010639;28;20044;-74
2021/12/26 11:10:17;;;;;;;31.42;21.98;;;;;;;7.76;67.51;95005.47;5028802;28;20116;-76
2021/12/26 11:12:45;;;;;;;32.55;22.88;;;;;;;7.83;67.66;95000.28;5027964;28;20032;-75
2021/12/26 11:15:11;;;;;;;38.47;23.63;;;;;;;7.91;67.80;94994.94;5011565;28;20087;-75
2021/12/26 11:17:42;;;;;;;43.47;26.67;;;;;;;7.86;67.62;95002.63;5027849;28;20022;-76
2021/12/26 11:20:08;;;;;;;41.45;27.00;;;;;;;8.02;67.30;94997.25;5029139;28;20353;-76
2021/12/26 11:22:33;;;;;;;47.10;28.90;;;;;;;8.17;66.61;95012.56;5028168;28;20021;-75
2021/12/26 11:24:59;;;;;;;40.63;27.80;;;;;;;8.18;66.31;94998.19;5010741;28;20018;-76
2021/12/26 11:27:25;;;;;;;43.65;27.63;;;;;;;8.27;66.26;94999.00;5028494;28;20029;-78
2021/12/26 11:29:52;;;;;;;39.90;25.85;;;;;;;8.25;65.64;94993.81;5010395;28;20028;-75
2021/12/26 11:32:18;;;;;;;35.30;24.92;;;;;;;8.28;65.98;94995.31;5029079;28;20032;-76